Terminal Aerodrome Forecast
Issued by NWS Blacksburg, VA

Current Version | Previous Version | Text Only | Print | Product List | Glossary On
Versions: 1 2 3 4 5 6 7 8 9 10 11 12 13 14 15 16 17 18 19 20 21 22 23 24 25 26 27 28
000
FTUS41 KRNK 161746
TAFDAN
TAF
KDAN 161746Z 1618/1718 00000KT P6SM SCT045
     FM170100 35003KT P6SM BKN100
     FM170900 03002KT 4SM -DZ BR OVC008
     FM171600 04003KT P6SM SCT008 BKN015=

USA.gov is the U.S. government's official web portal to all federal, state and local government web resources and services.